Nelspruit, South Africa
Current Conditions -  °F | °C
As of 12:00 PM on Sunday 25 Jan 2015 (Local Time) from FAKN Reporting Station
Broken Clouds Broken Clouds  
Wind Chill: 81°   Ceiling: 2500
Heat Index: 81°   Visibility: 6mi
Dew Point: 59°   Wind: 3mph
Humidity: 48%   Direction: 60°ENE
Pressure: 29.97"   Gusts: NA
Location:  25.47°S, 30.99°E
Report Text: FAKN 251000Z 06003KT 9999 BKN025 27/15 Q1015 NOSIG
Loading
Personal Weather Stations






























Interactive Weather Map New forecast layout! Learn more

10-Day Weather Forecast

Advertisements
Track Severe Weather on mobile